sensor_id;sensor_type;location;lat;lon;timestamp;temperature;humidity
15072;DHT22;7635;56.696;13.002;2023-02-14T00:01:35;3.40;99.90
15072;DHT22;7635;56.696;13.002;2023-02-14T00:04:01;3.40;99.90
15072;DHT22;7635;56.696;13.002;2023-02-14T00:06:30;3.40;99.90
15072;DHT22;7635;56.696;13.002;2023-02-14T00:08:57;3.40;99.90
15072;DHT22;7635;56.696;13.002;2023-02-14T00:11:23;3.40;99.90
15072;DHT22;7635;56.696;13.002;2023-02-14T00:13:51;3.40;99.90
15072;DHT22;7635;56.696;13.002;2023-02-14T00:16:36;3.40;99.90
15072;DHT22;7635;56.696;13.002;2023-02-14T00:19:02;3.40;99.90
15072;DHT22;7635;56.696;13.002;2023-02-14T00:21:29;3.40;99.90
15072;DHT22;7635;56.696;13.002;2023-02-14T00:23:56;3.40;99.90
15072;DHT22;7635;56.696;13.002;2023-02-14T00:26:23;3.40;99.90
15072;DHT22;7635;56.696;13.002;2023-02-14T00:28:51;3.40;99.90
15072;DHT22;7635;56.696;13.002;2023-02-14T00:31:17;3.40;99.90
15072;DHT22;7635;56.696;13.002;2023-02-14T00:33:44;3.40;99.90
15072;DHT22;7635;56.696;13.002;2023-02-14T00:36:11;3.40;99.90
15072;DHT22;7635;56.696;13.002;2023-02-14T00:38:37;3.40;99.90
15072;DHT22;7635;56.696;13.002;2023-02-14T00:41:04;3.40;99.90
15072;DHT22;7635;56.696;13.002;2023-02-14T00:43:31;3.40;99.90
15072;DHT22;7635;56.696;13.002;2023-02-14T00:45:59;3.40;99.90
15072;DHT22;7635;56.696;13.002;2023-02-14T00:48:27;3.40;99.90
15072;DHT22;7635;56.696;13.002;2023-02-14T00:50:53;3.40;99.90
15072;DHT22;7635;56.696;13.002;2023-02-14T00:53:20;3.50;99.90
15072;DHT22;7635;56.696;13.002;2023-02-14T00:55:47;3.50;99.90
15072;DHT22;7635;56.696;13.002;2023-02-14T00:58:13;3.50;99.90
15072;DHT22;7635;56.696;13.002;2023-02-14T01:00:40;3.50;99.90
15072;DHT22;7635;56.696;13.002;2023-02-14T01:03:09;3.50;99.90
15072;DHT22;7635;56.696;13.002;2023-02-14T01:05:36;3.50;99.90
15072;DHT22;7635;56.696;13.002;2023-02-14T01:08:03;3.50;99.90
15072;DHT22;7635;56.696;13.002;2023-02-14T01:10:45;3.50;99.90
15072;DHT22;7635;56.696;13.002;2023-02-14T01:13:12;3.50;99.90
15072;DHT22;7635;56.696;13.002;2023-02-14T01:15:41;3.50;99.90
15072;DHT22;7635;56.696;13.002;2023-02-14T01:18:09;3.50;99.90
15072;DHT22;7635;56.696;13.002;2023-02-14T01:20:36;3.50;99.90
15072;DHT22;7635;56.696;13.002;2023-02-14T01:23:12;3.50;99.90
15072;DHT22;7635;56.696;13.002;2023-02-14T01:25:39;3.50;99.90
15072;DHT22;7635;56.696;13.002;2023-02-14T01:28:11;3.50;99.90
15072;DHT22;7635;56.696;13.002;2023-02-14T01:30:38;3.50;99.90
15072;DHT22;7635;56.696;13.002;2023-02-14T01:33:05;3.50;99.90
15072;DHT22;7635;56.696;13.002;2023-02-14T01:35:37;3.60;99.90
15072;DHT22;7635;56.696;13.002;2023-02-14T01:38:04;3.50;99.90
15072;DHT22;7635;56.696;13.002;2023-02-14T01:40:31;3.50;99.90
15072;DHT22;7635;56.696;13.002;2023-02-14T01:42:57;3.60;99.90
15072;DHT22;7635;56.696;13.002;2023-02-14T01:45:25;3.60;99.90
15072;DHT22;7635;56.696;13.002;2023-02-14T01:47:55;3.60;99.90
15072;DHT22;7635;56.696;13.002;2023-02-14T01:50:25;3.60;99.90
15072;DHT22;7635;56.696;13.002;2023-02-14T01:53:00;3.60;99.90
15072;DHT22;7635;56.696;13.002;2023-02-14T01:55:30;3.60;99.90
15072;DHT22;7635;56.696;13.002;2023-02-14T01:58:05;3.60;99.90
15072;DHT22;7635;56.696;13.002;2023-02-14T02:00:34;3.60;99.90
15072;DHT22;7635;56.696;13.002;2023-02-14T02:03:20;3.70;99.90
15072;DHT22;7635;56.696;13.002;2023-02-14T02:05:50;3.60;99.90
15072;DHT22;7635;56.696;13.002;2023-02-14T02:08:20;3.60;99.90
15072;DHT22;7635;56.696;13.002;2023-02-14T02:10:46;3.60;99.90
15072;DHT22;7635;56.696;13.002;2023-02-14T02:13:15;3.70;99.90
15072;DHT22;7635;56.696;13.002;2023-02-14T02:15:56;3.70;99.90
15072;DHT22;7635;56.696;13.002;2023-02-14T02:18:37;3.70;99.90
15072;DHT22;7635;56.696;13.002;2023-02-14T02:21:35;3.70;99.90
15072;DHT22;7635;56.696;13.002;2023-02-14T02:24:16;3.70;99.90
15072;DHT22;7635;56.696;13.002;2023-02-14T02:26:58;3.70;99.90
15072;DHT22;7635;56.696;13.002;2023-02-14T02:35:51;3.70;99.90
15072;DHT22;7635;56.696;13.002;2023-02-14T02:38:53;3.70;99.90
15072;DHT22;7635;56.696;13.002;2023-02-14T02:41:27;3.70;99.90
15072;DHT22;7635;56.696;13.002;2023-02-14T02:44:04;3.70;99.90
15072;DHT22;7635;56.696;13.002;2023-02-14T02:46:38;3.70;99.90
15072;DHT22;7635;56.696;13.002;2023-02-14T02:49:29;3.70;99.90
15072;DHT22;7635;56.696;13.002;2023-02-14T02:52:36;3.70;99.90
15072;DHT22;7635;56.696;13.002;2023-02-14T02:55:24;3.70;99.90
15072;DHT22;7635;56.696;13.002;2023-02-14T02:57:52;3.80;99.90
15072;DHT22;7635;56.696;13.002;2023-02-14T03:00:29;3.80;99.90
15072;DHT22;7635;56.696;13.002;2023-02-14T03:03:06;3.70;99.90
15072;DHT22;7635;56.696;13.002;2023-02-14T03:05:50;3.80;99.90
15072;DHT22;7635;56.696;13.002;2023-02-14T03:08:24;3.80;99.90
15072;DHT22;7635;56.696;13.002;2023-02-14T03:10:52;3.80;99.90
15072;DHT22;7635;56.696;13.002;2023-02-14T03:13:35;3.70;99.90
15072;DHT22;7635;56.696;13.002;2023-02-14T03:16:23;3.70;99.90
15072;DHT22;7635;56.696;13.002;2023-02-14T03:21:57;3.70;99.90
15072;DHT22;7635;56.696;13.002;2023-02-14T03:24:44;3.70;99.90
15072;DHT22;7635;56.696;13.002;2023-02-14T03:27:17;3.70;99.90
15072;DHT22;7635;56.696;13.002;2023-02-14T03:29:55;3.70;99.90
15072;DHT22;7635;56.696;13.002;2023-02-14T03:32:45;3.70;99.90
15072;DHT22;7635;56.696;13.002;2023-02-14T03:35:17;3.70;99.90
15072;DHT22;7635;56.696;13.002;2023-02-14T03:37:50;3.70;99.90
15072;DHT22;7635;56.696;13.002;2023-02-14T03:40:24;3.70;99.90
15072;DHT22;7635;56.696;13.002;2023-02-14T03:42:54;3.70;99.90
15072;DHT22;7635;56.696;13.002;2023-02-14T03:45:28;3.70;99.90
15072;DHT22;7635;56.696;13.002;2023-02-14T03:48:07;3.70;99.90
15072;DHT22;7635;56.696;13.002;2023-02-14T03:50:35;3.80;99.90
15072;DHT22;7635;56.696;13.002;2023-02-14T03:53:12;3.70;99.90
15072;DHT22;7635;56.696;13.002;2023-02-14T03:55:46;3.80;99.90
15072;DHT22;7635;56.696;13.002;2023-02-14T03:58:19;3.70;99.90
15072;DHT22;7635;56.696;13.002;2023-02-14T04:00:55;3.80;99.90
15072;DHT22;7635;56.696;13.002;2023-02-14T04:03:27;3.70;99.90
15072;DHT22;7635;56.696;13.002;2023-02-14T04:05:55;3.70;99.90
15072;DHT22;7635;56.696;13.002;2023-02-14T04:08:23;3.70;99.90
15072;DHT22;7635;56.696;13.002;2023-02-14T04:11:09;3.70;99.90
15072;DHT22;7635;56.696;13.002;2023-02-14T04:13:37;3.80;99.90
15072;DHT22;7635;56.696;13.002;2023-02-14T04:16:04;3.80;99.90
15072;DHT22;7635;56.696;13.002;2023-02-14T04:21:31;3.80;99.90
15072;DHT22;7635;56.696;13.002;2023-02-14T04:24:11;3.80;99.90
15072;DHT22;7635;56.696;13.002;2023-02-14T04:27:09;3.70;99.90
15072;DHT22;7635;56.696;13.002;2023-02-14T04:29:36;3.70;99.90
15072;DHT22;7635;56.696;13.002;2023-02-14T04:32:09;3.70;99.90
15072;DHT22;7635;56.696;13.002;2023-02-14T04:34:36;3.80;99.90
15072;DHT22;7635;56.696;13.002;2023-02-14T04:37:04;3.70;99.90
15072;DHT22;7635;56.696;13.002;2023-02-14T04:39:31;3.70;99.90
15072;DHT22;7635;56.696;13.002;2023-02-14T04:41:58;3.70;99.90
15072;DHT22;7635;56.696;13.002;2023-02-14T04:44:33;3.70;99.90
15072;DHT22;7635;56.696;13.002;2023-02-14T04:47:06;3.80;99.90
15072;DHT22;7635;56.696;13.002;2023-02-14T04:49:44;3.80;99.90
15072;DHT22;7635;56.696;13.002;2023-02-14T04:52:11;3.80;99.90
15072;DHT22;7635;56.696;13.002;2023-02-14T04:54:38;3.80;99.90
15072;DHT22;7635;56.696;13.002;2023-02-14T04:57:05;3.80;99.90
15072;DHT22;7635;56.696;13.002;2023-02-14T04:59:46;3.80;99.90
15072;DHT22;7635;56.696;13.002;2023-02-14T05:02:26;3.80;99.90
15072;DHT22;7635;56.696;13.002;2023-02-14T05:04:59;3.80;99.90
15072;DHT22;7635;56.696;13.002;2023-02-14T05:07:41;3.80;99.90
15072;DHT22;7635;56.696;13.002;2023-02-14T05:10:21;3.80;99.90
15072;DHT22;7635;56.696;13.002;2023-02-14T05:12:48;3.80;99.90
15072;DHT22;7635;56.696;13.002;2023-02-14T05:15:30;3.80;99.90
15072;DHT22;7635;56.696;13.002;2023-02-14T05:18:03;3.80;99.90
15072;DHT22;7635;56.696;13.002;2023-02-14T05:20:30;3.80;99.90
15072;DHT22;7635;56.696;13.002;2023-02-14T05:23:03;3.80;99.90
15072;DHT22;7635;56.696;13.002;2023-02-14T05:25:31;3.70;99.90
15072;DHT22;7635;56.696;13.002;2023-02-14T05:28:05;3.80;99.90
15072;DHT22;7635;56.696;13.002;2023-02-14T05:30:33;3.70;99.90
15072;DHT22;7635;56.696;13.002;2023-02-14T05:33:01;3.70;99.90
15072;DHT22;7635;56.696;13.002;2023-02-14T05:35:28;3.80;99.90
15072;DHT22;7635;56.696;13.002;2023-02-14T05:37:57;3.80;99.90
15072;DHT22;7635;56.696;13.002;2023-02-14T05:40:24;3.70;99.90
15072;DHT22;7635;56.696;13.002;2023-02-14T05:43:12;3.80;99.90
15072;DHT22;7635;56.696;13.002;2023-02-14T05:45:42;3.80;99.90
15072;DHT22;7635;56.696;13.002;2023-02-14T05:48:11;3.80;99.90
15072;DHT22;7635;56.696;13.002;2023-02-14T05:50:44;3.80;99.90
15072;DHT22;7635;56.696;13.002;2023-02-14T05:53:17;3.70;99.90
15072;DHT22;7635;56.696;13.002;2023-02-14T05:55:45;3.80;99.90
15072;DHT22;7635;56.696;13.002;2023-02-14T05:58:13;3.80;99.90
15072;DHT22;7635;56.696;13.002;2023-02-14T06:00:41;3.80;99.90
15072;DHT22;7635;56.696;13.002;2023-02-14T06:03:08;3.80;99.90
15072;DHT22;7635;56.696;13.002;2023-02-14T06:05:50;3.80;99.90
15072;DHT22;7635;56.696;13.002;2023-02-14T06:08:17;3.80;99.90
15072;DHT22;7635;56.696;13.002;2023-02-14T06:10:43;3.80;99.90
15072;DHT22;7635;56.696;13.002;2023-02-14T06:13:11;3.80;99.90
15072;DHT22;7635;56.696;13.002;2023-02-14T06:15:38;3.80;99.90
15072;DHT22;7635;56.696;13.002;2023-02-14T06:18:06;3.80;99.90
15072;DHT22;7635;56.696;13.002;2023-02-14T06:20:43;3.80;99.90
15072;DHT22;7635;56.696;13.002;2023-02-14T06:23:10;3.80;99.90
15072;DHT22;7635;56.696;13.002;2023-02-14T06:25:37;3.80;99.90
15072;DHT22;7635;56.696;13.002;2023-02-14T06:28:18;3.90;99.90
15072;DHT22;7635;56.696;13.002;2023-02-14T06:31:13;3.80;99.90
15072;DHT22;7635;56.696;13.002;2023-02-14T06:36:37;3.90;99.90
15072;DHT22;7635;56.696;13.002;2023-02-14T06:39:04;3.90;99.90
15072;DHT22;7635;56.696;13.002;2023-02-14T06:41:40;3.90;99.90
15072;DHT22;7635;56.696;13.002;2023-02-14T06:44:09;3.90;99.90
15072;DHT22;7635;56.696;13.002;2023-02-14T06:46:36;3.90;99.90
15072;DHT22;7635;56.696;13.002;2023-02-14T06:49:04;3.90;99.90
15072;DHT22;7635;56.696;13.002;2023-02-14T06:51:31;3.90;99.90
15072;DHT22;7635;56.696;13.002;2023-02-14T06:54:01;4.00;99.90
15072;DHT22;7635;56.696;13.002;2023-02-14T06:56:28;4.00;99.90
15072;DHT22;7635;56.696;13.002;2023-02-14T06:58:55;3.90;99.90
15072;DHT22;7635;56.696;13.002;2023-02-14T07:01:23;4.00;99.90
15072;DHT22;7635;56.696;13.002;2023-02-14T07:03:50;4.00;99.90
15072;DHT22;7635;56.696;13.002;2023-02-14T07:06:20;4.00;99.90
15072;DHT22;7635;56.696;13.002;2023-02-14T07:11:24;4.00;99.90
15072;DHT22;7635;56.696;13.002;2023-02-14T07:13:53;4.00;99.90
15072;DHT22;7635;56.696;13.002;2023-02-14T07:16:28;4.00;99.90
15072;DHT22;7635;56.696;13.002;2023-02-14T07:19:01;4.00;99.90
15072;DHT22;7635;56.696;13.002;2023-02-14T07:24:26;4.10;99.90
15072;DHT22;7635;56.696;13.002;2023-02-14T07:26:59;4.10;99.90
15072;DHT22;7635;56.696;13.002;2023-02-14T07:29:35;4.10;99.90
15072;DHT22;7635;56.696;13.002;2023-02-14T07:32:10;4.10;99.90
15072;DHT22;7635;56.696;13.002;2023-02-14T07:34:37;4.10;99.90
15072;DHT22;7635;56.696;13.002;2023-02-14T07:37:05;4.20;99.90
15072;DHT22;7635;56.696;13.002;2023-02-14T07:39:32;4.20;99.90
15072;DHT22;7635;56.696;13.002;2023-02-14T07:41:59;4.20;99.90
15072;DHT22;7635;56.696;13.002;2023-02-14T07:44:35;4.20;99.90
15072;DHT22;7635;56.696;13.002;2023-02-14T07:47:05;4.20;99.90
15072;DHT22;7635;56.696;13.002;2023-02-14T07:49:32;4.20;99.90
15072;DHT22;7635;56.696;13.002;2023-02-14T07:51:59;4.20;99.90
15072;DHT22;7635;56.696;13.002;2023-02-14T07:54:28;4.30;99.90
15072;DHT22;7635;56.696;13.002;2023-02-14T07:56:55;4.30;99.90
15072;DHT22;7635;56.696;13.002;2023-02-14T07:59:21;4.30;99.90
15072;DHT22;7635;56.696;13.002;2023-02-14T08:01:48;4.30;99.90
15072;DHT22;7635;56.696;13.002;2023-02-14T08:04:24;4.30;99.90
15072;DHT22;7635;56.696;13.002;2023-02-14T08:06:51;4.30;99.90
15072;DHT22;7635;56.696;13.002;2023-02-14T08:09:19;4.30;99.90
15072;DHT22;7635;56.696;13.002;2023-02-14T08:11:51;4.40;99.90
15072;DHT22;7635;56.696;13.002;2023-02-14T08:14:56;4.40;99.90
15072;DHT22;7635;56.696;13.002;2023-02-14T08:17:43;4.40;99.90
15072;DHT22;7635;56.696;13.002;2023-02-14T08:20:11;4.40;99.90
15072;DHT22;7635;56.696;13.002;2023-02-14T08:22:38;4.50;99.90
15072;DHT22;7635;56.696;13.002;2023-02-14T08:25:20;4.50;99.90
15072;DHT22;7635;56.696;13.002;2023-02-14T08:27:59;4.50;99.90
15072;DHT22;7635;56.696;13.002;2023-02-14T08:30:26;4.50;99.90
15072;DHT22;7635;56.696;13.002;2023-02-14T08:33:03;4.50;99.90
15072;DHT22;7635;56.696;13.002;2023-02-14T08:35:45;4.50;99.90
15072;DHT22;7635;56.696;13.002;2023-02-14T08:40:59;4.60;99.90
15072;DHT22;7635;56.696;13.002;2023-02-14T08:43:35;4.60;99.90
15072;DHT22;7635;56.696;13.002;2023-02-14T08:46:03;4.60;99.90
15072;DHT22;7635;56.696;13.002;2023-02-14T08:48:30;4.70;99.90
15072;DHT22;7635;56.696;13.002;2023-02-14T08:50:56;4.70;99.90
15072;DHT22;7635;56.696;13.002;2023-02-14T08:53:26;4.70;99.90
15072;DHT22;7635;56.696;13.002;2023-02-14T08:56:01;4.70;99.90
15072;DHT22;7635;56.696;13.002;2023-02-14T08:58:41;4.80;99.90
15072;DHT22;7635;56.696;13.002;2023-02-14T09:01:08;4.80;99.90
15072;DHT22;7635;56.696;13.002;2023-02-14T09:03:35;4.80;99.90
15072;DHT22;7635;56.696;13.002;2023-02-14T09:06:06;4.90;99.90
15072;DHT22;7635;56.696;13.002;2023-02-14T09:08:34;4.90;99.90
15072;DHT22;7635;56.696;13.002;2023-02-14T09:11:05;4.90;99.90
15072;DHT22;7635;56.696;13.002;2023-02-14T09:13:35;4.90;99.90
15072;DHT22;7635;56.696;13.002;2023-02-14T09:16:04;5.00;99.90
15072;DHT22;7635;56.696;13.002;2023-02-14T09:18:31;5.00;99.90
15072;DHT22;7635;56.696;13.002;2023-02-14T09:20:59;5.00;99.90
15072;DHT22;7635;56.696;13.002;2023-02-14T09:23:26;5.00;99.90
15072;DHT22;7635;56.696;13.002;2023-02-14T09:25:59;5.10;99.90
15072;DHT22;7635;56.696;13.002;2023-02-14T09:28:26;5.10;99.90
15072;DHT22;7635;56.696;13.002;2023-02-14T09:30:53;5.10;99.90
15072;DHT22;7635;56.696;13.002;2023-02-14T09:33:21;5.10;99.90
15072;DHT22;7635;56.696;13.002;2023-02-14T09:35:48;5.10;99.90
15072;DHT22;7635;56.696;13.002;2023-02-14T09:38:38;5.20;99.90
15072;DHT22;7635;56.696;13.002;2023-02-14T09:41:06;5.20;99.90
15072;DHT22;7635;56.696;13.002;2023-02-14T09:43:50;5.20;99.90
15072;DHT22;7635;56.696;13.002;2023-02-14T09:46:25;5.20;99.90
15072;DHT22;7635;56.696;13.002;2023-02-14T09:48:56;5.30;99.90
15072;DHT22;7635;56.696;13.002;2023-02-14T09:51:45;5.30;99.90
15072;DHT22;7635;56.696;13.002;2023-02-14T09:54:15;5.30;99.90
15072;DHT22;7635;56.696;13.002;2023-02-14T09:56:49;5.30;99.90
15072;DHT22;7635;56.696;13.002;2023-02-14T09:59:22;5.40;99.90
15072;DHT22;7635;56.696;13.002;2023-02-14T10:01:57;5.40;99.90
15072;DHT22;7635;56.696;13.002;2023-02-14T10:04:32;5.40;99.90
15072;DHT22;7635;56.696;13.002;2023-02-14T10:07:09;5.40;99.90
15072;DHT22;7635;56.696;13.002;2023-02-14T10:09:52;5.40;99.90
15072;DHT22;7635;56.696;13.002;2023-02-14T10:12:26;5.50;99.90
15072;DHT22;7635;56.696;13.002;2023-02-14T10:14:58;5.50;99.90
15072;DHT22;7635;56.696;13.002;2023-02-14T10:17:37;5.50;99.90
15072;DHT22;7635;56.696;13.002;2023-02-14T10:20:15;5.50;99.90
15072;DHT22;7635;56.696;13.002;2023-02-14T10:22:48;5.50;99.90
15072;DHT22;7635;56.696;13.002;2023-02-14T10:25:21;5.50;99.90
15072;DHT22;7635;56.696;13.002;2023-02-14T10:27:50;5.50;99.90
15072;DHT22;7635;56.696;13.002;2023-02-14T10:30:37;5.60;99.90
15072;DHT22;7635;56.696;13.002;2023-02-14T10:33:09;5.60;99.90
15072;DHT22;7635;56.696;13.002;2023-02-14T10:35:43;5.60;99.90
15072;DHT22;7635;56.696;13.002;2023-02-14T10:38:23;5.60;99.90
15072;DHT22;7635;56.696;13.002;2023-02-14T10:41:16;5.60;99.90
15072;DHT22;7635;56.696;13.002;2023-02-14T10:43:51;5.60;99.90
15072;DHT22;7635;56.696;13.002;2023-02-14T10:46:31;5.60;99.90
15072;DHT22;7635;56.696;13.002;2023-02-14T10:49:12;5.60;99.90
15072;DHT22;7635;56.696;13.002;2023-02-14T10:51:48;5.60;99.90
15072;DHT22;7635;56.696;13.002;2023-02-14T10:54:30;5.70;99.90
15072;DHT22;7635;56.696;13.002;2023-02-14T10:59:51;5.70;99.90
15072;DHT22;7635;56.696;13.002;2023-02-14T11:02:23;5.70;99.90
15072;DHT22;7635;56.696;13.002;2023-02-14T11:04:51;5.70;99.90
15072;DHT22;7635;56.696;13.002;2023-02-14T11:07:20;5.70;99.90
15072;DHT22;7635;56.696;13.002;2023-02-14T11:09:47;5.80;99.90
15072;DHT22;7635;56.696;13.002;2023-02-14T11:12:35;5.70;99.90
15072;DHT22;7635;56.696;13.002;2023-02-14T11:15:22;5.70;99.90
15072;DHT22;7635;56.696;13.002;2023-02-14T11:18:07;5.70;99.90
15072;DHT22;7635;56.696;13.002;2023-02-14T11:20:34;5.70;99.90
15072;DHT22;7635;56.696;13.002;2023-02-14T11:23:17;5.70;99.90
15072;DHT22;7635;56.696;13.002;2023-02-14T11:25:51;5.70;99.90
15072;DHT22;7635;56.696;13.002;2023-02-14T11:28:29;5.70;99.90
15072;DHT22;7635;56.696;13.002;2023-02-14T11:30:56;5.70;99.90
15072;DHT22;7635;56.696;13.002;2023-02-14T11:33:37;5.70;99.90
15072;DHT22;7635;56.696;13.002;2023-02-14T11:36:09;5.70;99.90
15072;DHT22;7635;56.696;13.002;2023-02-14T11:38:42;5.70;99.90
15072;DHT22;7635;56.696;13.002;2023-02-14T11:41:12;5.70;99.90
15072;DHT22;7635;56.696;13.002;2023-02-14T11:43:45;5.70;99.90
15072;DHT22;7635;56.696;13.002;2023-02-14T11:46:23;5.70;99.90
15072;DHT22;7635;56.696;13.002;2023-02-14T11:49:22;5.70;99.90
15072;DHT22;7635;56.696;13.002;2023-02-14T11:51:52;5.70;99.90
15072;DHT22;7635;56.696;13.002;2023-02-14T11:54:28;5.60;99.90
15072;DHT22;7635;56.696;13.002;2023-02-14T11:57:01;5.60;99.90
15072;DHT22;7635;56.696;13.002;2023-02-14T11:59:32;5.60;99.90
15072;DHT22;7635;56.696;13.002;2023-02-14T12:02:03;5.60;99.90
15072;DHT22;7635;56.696;13.002;2023-02-14T12:04:42;5.60;99.90
15072;DHT22;7635;56.696;13.002;2023-02-14T12:07:20;5.60;99.90
15072;DHT22;7635;56.696;13.002;2023-02-14T12:10:06;5.60;99.90
15072;DHT22;7635;56.696;13.002;2023-02-14T12:12:39;5.60;99.90
15072;DHT22;7635;56.696;13.002;2023-02-14T12:15:37;5.50;99.90
15072;DHT22;7635;56.696;13.002;2023-02-14T12:24:05;5.40;99.90
15072;DHT22;7635;56.696;13.002;2023-02-14T12:26:43;5.40;99.90
15072;DHT22;7635;56.696;13.002;2023-02-14T12:29:17;5.40;99.90
15072;DHT22;7635;56.696;13.002;2023-02-14T12:31:55;5.40;99.90
15072;DHT22;7635;56.696;13.002;2023-02-14T12:34:29;5.40;99.90
15072;DHT22;7635;56.696;13.002;2023-02-14T12:37:18;5.40;99.90
15072;DHT22;7635;56.696;13.002;2023-02-14T12:40:02;5.40;99.90
15072;DHT22;7635;56.696;13.002;2023-02-14T12:42:46;5.40;99.90
15072;DHT22;7635;56.696;13.002;2023-02-14T12:45:25;5.50;99.90
15072;DHT22;7635;56.696;13.002;2023-02-14T12:48:03;5.40;99.90
15072;DHT22;7635;56.696;13.002;2023-02-14T12:50:40;5.40;99.90
15072;DHT22;7635;56.696;13.002;2023-02-14T12:53:34;5.40;99.90
15072;DHT22;7635;56.696;13.002;2023-02-14T12:56:10;5.40;99.90
15072;DHT22;7635;56.696;13.002;2023-02-14T12:58:45;5.40;99.90
15072;DHT22;7635;56.696;13.002;2023-02-14T13:01:34;5.40;99.90
15072;DHT22;7635;56.696;13.002;2023-02-14T13:04:47;5.40;99.90
15072;DHT22;7635;56.696;13.002;2023-02-14T13:07:29;5.40;99.90
15072;DHT22;7635;56.696;13.002;2023-02-14T13:13:01;5.30;99.90
15072;DHT22;7635;56.696;13.002;2023-02-14T13:15:38;5.30;99.90
15072;DHT22;7635;56.696;13.002;2023-02-14T13:18:11;5.30;99.90
15072;DHT22;7635;56.696;13.002;2023-02-14T13:20:50;5.30;99.90
15072;DHT22;7635;56.696;13.002;2023-02-14T13:23:30;5.30;99.90
15072;DHT22;7635;56.696;13.002;2023-02-14T13:26:13;5.30;99.90
15072;DHT22;7635;56.696;13.002;2023-02-14T13:28:46;5.30;99.90
15072;DHT22;7635;56.696;13.002;2023-02-14T13:31:21;5.30;99.90
15072;DHT22;7635;56.696;13.002;2023-02-14T13:33:50;5.30;99.90
15072;DHT22;7635;56.696;13.002;2023-02-14T13:36:21;5.30;99.90
15072;DHT22;7635;56.696;13.002;2023-02-14T13:38:52;5.30;99.90
15072;DHT22;7635;56.696;13.002;2023-02-14T13:41:20;5.30;99.90
15072;DHT22;7635;56.696;13.002;2023-02-14T13:43:50;5.30;99.90
15072;DHT22;7635;56.696;13.002;2023-02-14T13:46:20;5.30;99.90
15072;DHT22;7635;56.696;13.002;2023-02-14T13:48:58;5.30;99.90
15072;DHT22;7635;56.696;13.002;2023-02-14T13:51:45;5.30;99.90
15072;DHT22;7635;56.696;13.002;2023-02-14T13:54:34;5.30;99.90
15072;DHT22;7635;56.696;13.002;2023-02-14T13:57:26;5.30;99.90
15072;DHT22;7635;56.696;13.002;2023-02-14T14:00:37;5.30;99.90
15072;DHT22;7635;56.696;13.002;2023-02-14T14:03:10;5.30;99.90
15072;DHT22;7635;56.696;13.002;2023-02-14T14:05:58;5.20;99.90
15072;DHT22;7635;56.696;13.002;2023-02-14T14:08:39;5.10;99.90
15072;DHT22;7635;56.696;13.002;2023-02-14T14:11:12;5.10;99.90
15072;DHT22;7635;56.696;13.002;2023-02-14T14:13:59;5.10;99.90
15072;DHT22;7635;56.696;13.002;2023-02-14T14:16:29;5.10;99.90
15072;DHT22;7635;56.696;13.002;2023-02-14T14:19:01;5.10;99.90
15072;DHT22;7635;56.696;13.002;2023-02-14T14:21:30;5.10;99.90
15072;DHT22;7635;56.696;13.002;2023-02-14T14:24:10;5.00;99.90
15072;DHT22;7635;56.696;13.002;2023-02-14T14:26:39;5.00;99.90
15072;DHT22;7635;56.696;13.002;2023-02-14T14:29:15;5.00;99.90
15072;DHT22;7635;56.696;13.002;2023-02-14T14:31:44;5.00;99.90
15072;DHT22;7635;56.696;13.002;2023-02-14T14:34:17;5.00;99.90
15072;DHT22;7635;56.696;13.002;2023-02-14T14:36:44;4.90;99.90
15072;DHT22;7635;56.696;13.002;2023-02-14T14:39:11;4.90;99.90
15072;DHT22;7635;56.696;13.002;2023-02-14T14:41:38;4.90;99.90
15072;DHT22;7635;56.696;13.002;2023-02-14T14:44:05;4.90;99.90
15072;DHT22;7635;56.696;13.002;2023-02-14T14:46:39;4.90;99.90
15072;DHT22;7635;56.696;13.002;2023-02-14T14:49:09;4.90;99.90
15072;DHT22;7635;56.696;13.002;2023-02-14T14:51:39;4.90;99.90
15072;DHT22;7635;56.696;13.002;2023-02-14T14:54:33;4.90;99.90
15072;DHT22;7635;56.696;13.002;2023-02-14T14:57:01;4.90;99.90
15072;DHT22;7635;56.696;13.002;2023-02-14T14:59:30;4.80;99.90
15072;DHT22;7635;56.696;13.002;2023-02-14T15:04:45;4.70;99.90
15072;DHT22;7635;56.696;13.002;2023-02-14T15:07:25;4.70;99.90
15072;DHT22;7635;56.696;13.002;2023-02-14T15:09:53;4.70;99.90
15072;DHT22;7635;56.696;13.002;2023-02-14T15:12:22;4.70;99.90
15072;DHT22;7635;56.696;13.002;2023-02-14T15:15:11;4.70;99.90
15072;DHT22;7635;56.696;13.002;2023-02-14T15:17:40;4.70;99.90
15072;DHT22;7635;56.696;13.002;2023-02-14T15:20:09;4.70;99.90
15072;DHT22;7635;56.696;13.002;2023-02-14T15:22:44;4.70;99.90
15072;DHT22;7635;56.696;13.002;2023-02-14T15:25:16;4.70;99.90
15072;DHT22;7635;56.696;13.002;2023-02-14T15:27:44;4.70;99.90
15072;DHT22;7635;56.696;13.002;2023-02-14T15:30:22;4.70;99.90
15072;DHT22;7635;56.696;13.002;2023-02-14T15:32:50;4.70;99.90
15072;DHT22;7635;56.696;13.002;2023-02-14T15:35:21;4.60;99.90
15072;DHT22;7635;56.696;13.002;2023-02-14T15:37:50;4.60;99.90
15072;DHT22;7635;56.696;13.002;2023-02-14T15:40:29;4.60;99.90
15072;DHT22;7635;56.696;13.002;2023-02-14T15:43:01;4.60;99.90
15072;DHT22;7635;56.696;13.002;2023-02-14T15:45:38;4.60;99.90
15072;DHT22;7635;56.696;13.002;2023-02-14T15:48:13;4.60;99.90
15072;DHT22;7635;56.696;13.002;2023-02-14T15:50:52;4.60;99.90
15072;DHT22;7635;56.696;13.002;2023-02-14T15:53:37;4.60;99.90
15072;DHT22;7635;56.696;13.002;2023-02-14T15:56:17;4.60;99.90
15072;DHT22;7635;56.696;13.002;2023-02-14T15:58:58;4.60;99.90
15072;DHT22;7635;56.696;13.002;2023-02-14T16:01:48;4.60;99.90
15072;DHT22;7635;56.696;13.002;2023-02-14T16:04:22;4.60;99.90
15072;DHT22;7635;56.696;13.002;2023-02-14T16:07:03;4.60;99.90
15072;DHT22;7635;56.696;13.002;2023-02-14T16:09:34;4.50;99.90
15072;DHT22;7635;56.696;13.002;2023-02-14T16:12:26;4.50;99.90
15072;DHT22;7635;56.696;13.002;2023-02-14T16:15:15;4.50;99.90
15072;DHT22;7635;56.696;13.002;2023-02-14T16:17:52;4.50;99.90
15072;DHT22;7635;56.696;13.002;2023-02-14T16:20:28;4.50;99.90
15072;DHT22;7635;56.696;13.002;2023-02-14T16:23:22;4.50;99.90
15072;DHT22;7635;56.696;13.002;2023-02-14T16:25:51;4.40;99.90
15072;DHT22;7635;56.696;13.002;2023-02-14T16:28:26;4.40;99.90
15072;DHT22;7635;56.696;13.002;2023-02-14T16:30:54;4.40;99.90
15072;DHT22;7635;56.696;13.002;2023-02-14T16:33:24;4.40;99.90
15072;DHT22;7635;56.696;13.002;2023-02-14T16:35:52;4.50;99.90
15072;DHT22;7635;56.696;13.002;2023-02-14T16:38:20;4.40;99.90
15072;DHT22;7635;56.696;13.002;2023-02-14T16:40:51;4.40;99.90
15072;DHT22;7635;56.696;13.002;2023-02-14T16:43:19;4.40;99.90
15072;DHT22;7635;56.696;13.002;2023-02-14T16:45:47;4.50;99.90
15072;DHT22;7635;56.696;13.002;2023-02-14T16:48:14;4.40;99.90
15072;DHT22;7635;56.696;13.002;2023-02-14T16:50:41;4.40;99.90
15072;DHT22;7635;56.696;13.002;2023-02-14T16:53:21;4.40;99.90
15072;DHT22;7635;56.696;13.002;2023-02-14T16:55:54;4.40;99.90
15072;DHT22;7635;56.696;13.002;2023-02-14T16:58:23;4.40;99.90
15072;DHT22;7635;56.696;13.002;2023-02-14T17:00:53;4.40;99.90
15072;DHT22;7635;56.696;13.002;2023-02-14T17:03:20;4.40;99.90
15072;DHT22;7635;56.696;13.002;2023-02-14T17:05:47;4.40;99.90